sensor_id;sensor_type;location;lat;lon;timestamp;temperature;humidity
8436;DHT22;4255;48.730;9.156;2022-07-22T00:01:13;21.80;99.90
8436;DHT22;4255;48.730;9.156;2022-07-22T00:03:39;21.90;99.90
8436;DHT22;4255;48.730;9.156;2022-07-22T00:06:05;21.80;99.90
8436;DHT22;4255;48.730;9.156;2022-07-22T00:08:31;21.90;99.90
8436;DHT22;4255;48.730;9.156;2022-07-22T00:10:57;21.80;99.90
8436;DHT22;4255;48.730;9.156;2022-07-22T00:13:23;21.70;99.90
8436;DHT22;4255;48.730;9.156;2022-07-22T00:15:48;21.60;99.90
8436;DHT22;4255;48.730;9.156;2022-07-22T00:18:14;21.40;99.90
8436;DHT22;4255;48.730;9.156;2022-07-22T00:20:40;21.40;99.90
8436;DHT22;4255;48.730;9.156;2022-07-22T00:23:06;21.50;99.90
8436;DHT22;4255;48.730;9.156;2022-07-22T00:25:31;21.40;99.90
8436;DHT22;4255;48.730;9.156;2022-07-22T00:27:57;21.40;99.90
8436;DHT22;4255;48.730;9.156;2022-07-22T00:30:23;21.30;99.90
8436;DHT22;4255;48.730;9.156;2022-07-22T00:32:48;21.30;99.90
8436;DHT22;4255;48.730;9.156;2022-07-22T00:35:14;21.40;99.90
8436;DHT22;4255;48.730;9.156;2022-07-22T00:37:40;21.30;99.90
8436;DHT22;4255;48.730;9.156;2022-07-22T00:40:06;21.20;99.90
8436;DHT22;4255;48.730;9.156;2022-07-22T00:42:31;21.20;99.90
8436;DHT22;4255;48.730;9.156;2022-07-22T00:44:57;21.30;99.90
8436;DHT22;4255;48.730;9.156;2022-07-22T00:47:23;21.30;99.90
8436;DHT22;4255;48.730;9.156;2022-07-22T00:49:49;21.40;99.90
8436;DHT22;4255;48.730;9.156;2022-07-22T00:52:14;21.50;99.90
8436;DHT22;4255;48.730;9.156;2022-07-22T00:54:40;21.50;99.90
8436;DHT22;4255;48.730;9.156;2022-07-22T00:57:06;21.50;99.90
8436;DHT22;4255;48.730;9.156;2022-07-22T00:59:32;21.50;99.90
8436;DHT22;4255;48.730;9.156;2022-07-22T01:01:57;21.40;99.90
8436;DHT22;4255;48.730;9.156;2022-07-22T01:04:24;21.40;99.90
8436;DHT22;4255;48.730;9.156;2022-07-22T01:06:50;21.30;99.90
8436;DHT22;4255;48.730;9.156;2022-07-22T01:09:16;21.30;99.90
8436;DHT22;4255;48.730;9.156;2022-07-22T01:11:41;21.20;99.90
8436;DHT22;4255;48.730;9.156;2022-07-22T01:14:07;21.10;99.90
8436;DHT22;4255;48.730;9.156;2022-07-22T01:16:33;21.10;99.90
8436;DHT22;4255;48.730;9.156;2022-07-22T01:18:59;21.00;99.90
8436;DHT22;4255;48.730;9.156;2022-07-22T01:21:25;20.90;99.90
8436;DHT22;4255;48.730;9.156;2022-07-22T01:23:50;20.90;99.90
8436;DHT22;4255;48.730;9.156;2022-07-22T01:26:16;21.00;99.90
8436;DHT22;4255;48.730;9.156;2022-07-22T01:28:43;21.00;99.90
8436;DHT22;4255;48.730;9.156;2022-07-22T01:31:09;20.90;99.90
8436;DHT22;4255;48.730;9.156;2022-07-22T01:33:35;21.00;99.90
8436;DHT22;4255;48.730;9.156;2022-07-22T01:36:01;21.00;99.90
8436;DHT22;4255;48.730;9.156;2022-07-22T01:38:27;21.00;99.90
8436;DHT22;4255;48.730;9.156;2022-07-22T01:40:53;20.80;99.90
8436;DHT22;4255;48.730;9.156;2022-07-22T01:43:18;20.80;99.90
8436;DHT22;4255;48.730;9.156;2022-07-22T01:45:48;20.80;99.90
8436;DHT22;4255;48.730;9.156;2022-07-22T01:48:14;20.80;99.90
8436;DHT22;4255;48.730;9.156;2022-07-22T01:50:40;20.90;99.90
8436;DHT22;4255;48.730;9.156;2022-07-22T01:53:06;20.90;99.90
8436;DHT22;4255;48.730;9.156;2022-07-22T01:55:33;20.80;99.90
8436;DHT22;4255;48.730;9.156;2022-07-22T01:57:58;20.80;99.90
8436;DHT22;4255;48.730;9.156;2022-07-22T02:00:24;20.70;99.90
8436;DHT22;4255;48.730;9.156;2022-07-22T02:02:50;20.70;99.90
8436;DHT22;4255;48.730;9.156;2022-07-22T02:05:16;20.80;99.90
8436;DHT22;4255;48.730;9.156;2022-07-22T02:07:42;20.80;99.90
8436;DHT22;4255;48.730;9.156;2022-07-22T02:10:08;20.80;99.90
8436;DHT22;4255;48.730;9.156;2022-07-22T02:12:34;20.70;99.90
8436;DHT22;4255;48.730;9.156;2022-07-22T02:14:59;20.60;99.90
8436;DHT22;4255;48.730;9.156;2022-07-22T02:17:25;20.60;99.90
8436;DHT22;4255;48.730;9.156;2022-07-22T02:19:51;20.50;99.90
8436;DHT22;4255;48.730;9.156;2022-07-22T02:22:17;20.40;99.90
8436;DHT22;4255;48.730;9.156;2022-07-22T02:24:42;20.40;99.90
8436;DHT22;4255;48.730;9.156;2022-07-22T02:27:08;20.40;99.90
8436;DHT22;4255;48.730;9.156;2022-07-22T02:29:34;20.30;99.90
8436;DHT22;4255;48.730;9.156;2022-07-22T02:32:00;20.30;99.90
8436;DHT22;4255;48.730;9.156;2022-07-22T02:34:26;20.30;99.90
8436;DHT22;4255;48.730;9.156;2022-07-22T02:36:52;20.20;99.90
8436;DHT22;4255;48.730;9.156;2022-07-22T02:39:18;20.20;99.90
8436;DHT22;4255;48.730;9.156;2022-07-22T02:41:43;20.10;99.90
8436;DHT22;4255;48.730;9.156;2022-07-22T02:44:09;20.00;99.90
8436;DHT22;4255;48.730;9.156;2022-07-22T02:46:35;20.00;99.90
8436;DHT22;4255;48.730;9.156;2022-07-22T02:49:01;20.00;99.90
8436;DHT22;4255;48.730;9.156;2022-07-22T02:51:27;20.00;99.90
8436;DHT22;4255;48.730;9.156;2022-07-22T02:53:53;20.00;99.90
8436;DHT22;4255;48.730;9.156;2022-07-22T02:56:19;20.00;99.90
8436;DHT22;4255;48.730;9.156;2022-07-22T02:58:45;20.00;99.90
8436;DHT22;4255;48.730;9.156;2022-07-22T03:01:12;19.90;99.90
8436;DHT22;4255;48.730;9.156;2022-07-22T03:03:38;19.70;99.90
8436;DHT22;4255;48.730;9.156;2022-07-22T03:06:04;19.70;99.90
8436;DHT22;4255;48.730;9.156;2022-07-22T03:08:29;19.70;99.90
8436;DHT22;4255;48.730;9.156;2022-07-22T03:10:55;19.70;99.90
8436;DHT22;4255;48.730;9.156;2022-07-22T03:13:21;19.70;99.90
8436;DHT22;4255;48.730;9.156;2022-07-22T03:15:46;19.70;99.90
8436;DHT22;4255;48.730;9.156;2022-07-22T03:18:12;19.70;99.90
8436;DHT22;4255;48.730;9.156;2022-07-22T03:20:38;19.70;99.90
8436;DHT22;4255;48.730;9.156;2022-07-22T03:23:04;19.70;99.90
8436;DHT22;4255;48.730;9.156;2022-07-22T03:25:29;19.60;99.90
8436;DHT22;4255;48.730;9.156;2022-07-22T03:27:57;19.70;99.90
8436;DHT22;4255;48.730;9.156;2022-07-22T03:30:22;19.70;99.90
8436;DHT22;4255;48.730;9.156;2022-07-22T03:32:48;19.60;99.90
8436;DHT22;4255;48.730;9.156;2022-07-22T03:35:15;19.50;99.90
8436;DHT22;4255;48.730;9.156;2022-07-22T03:37:41;19.20;99.90
8436;DHT22;4255;48.730;9.156;2022-07-22T03:40:07;19.10;99.90
8436;DHT22;4255;48.730;9.156;2022-07-22T03:42:33;19.00;99.90
8436;DHT22;4255;48.730;9.156;2022-07-22T03:44:59;19.00;99.90
8436;DHT22;4255;48.730;9.156;2022-07-22T03:47:25;19.00;99.90
8436;DHT22;4255;48.730;9.156;2022-07-22T03:49:51;18.90;99.90
8436;DHT22;4255;48.730;9.156;2022-07-22T03:52:17;18.90;99.90
8436;DHT22;4255;48.730;9.156;2022-07-22T03:54:43;18.80;99.90
8436;DHT22;4255;48.730;9.156;2022-07-22T03:57:09;18.80;99.90
8436;DHT22;4255;48.730;9.156;2022-07-22T03:59:35;18.70;99.90
8436;DHT22;4255;48.730;9.156;2022-07-22T04:02:01;18.60;99.90
8436;DHT22;4255;48.730;9.156;2022-07-22T04:04:27;18.50;99.90
8436;DHT22;4255;48.730;9.156;2022-07-22T04:06:53;18.60;99.90
8436;DHT22;4255;48.730;9.156;2022-07-22T04:09:19;18.80;99.90
8436;DHT22;4255;48.730;9.156;2022-07-22T04:11:45;19.00;99.90
8436;DHT22;4255;48.730;9.156;2022-07-22T04:14:11;19.30;99.90
8436;DHT22;4255;48.730;9.156;2022-07-22T04:16:37;19.60;99.90
8436;DHT22;4255;48.730;9.156;2022-07-22T04:19:03;19.80;99.90
8436;DHT22;4255;48.730;9.156;2022-07-22T04:21:30;20.10;99.90
8436;DHT22;4255;48.730;9.156;2022-07-22T04:23:55;20.10;99.90
8436;DHT22;4255;48.730;9.156;2022-07-22T04:26:22;20.20;99.90
8436;DHT22;4255;48.730;9.156;2022-07-22T04:28:47;20.30;99.90
8436;DHT22;4255;48.730;9.156;2022-07-22T04:31:13;20.30;99.90
8436;DHT22;4255;48.730;9.156;2022-07-22T04:33:39;20.40;99.90
8436;DHT22;4255;48.730;9.156;2022-07-22T04:36:05;20.20;99.90
8436;DHT22;4255;48.730;9.156;2022-07-22T04:38:30;20.20;99.90
8436;DHT22;4255;48.730;9.156;2022-07-22T04:40:56;20.20;99.90
8436;DHT22;4255;48.730;9.156;2022-07-22T04:43:23;20.20;99.90
8436;DHT22;4255;48.730;9.156;2022-07-22T04:45:48;20.20;99.90
8436;DHT22;4255;48.730;9.156;2022-07-22T04:48:14;20.20;99.90
8436;DHT22;4255;48.730;9.156;2022-07-22T04:50:40;20.20;99.90
8436;DHT22;4255;48.730;9.156;2022-07-22T04:53:05;20.10;99.90
8436;DHT22;4255;48.730;9.156;2022-07-22T04:55:31;20.20;99.90
8436;DHT22;4255;48.730;9.156;2022-07-22T04:57:57;20.10;99.90
8436;DHT22;4255;48.730;9.156;2022-07-22T05:00:23;20.10;99.90
8436;DHT22;4255;48.730;9.156;2022-07-22T05:02:50;20.30;99.90
8436;DHT22;4255;48.730;9.156;2022-07-22T05:05:16;20.40;99.90
8436;DHT22;4255;48.730;9.156;2022-07-22T05:07:42;20.60;99.90
8436;DHT22;4255;48.730;9.156;2022-07-22T05:10:08;20.70;99.90
8436;DHT22;4255;48.730;9.156;2022-07-22T05:12:34;20.90;99.90
8436;DHT22;4255;48.730;9.156;2022-07-22T05:14:59;21.00;99.90
8436;DHT22;4255;48.730;9.156;2022-07-22T05:17:25;20.80;99.90
8436;DHT22;4255;48.730;9.156;2022-07-22T05:19:54;20.80;99.90
8436;DHT22;4255;48.730;9.156;2022-07-22T05:22:19;20.60;99.90
8436;DHT22;4255;48.730;9.156;2022-07-22T05:24:45;20.50;99.90
8436;DHT22;4255;48.730;9.156;2022-07-22T05:27:11;20.60;99.90
8436;DHT22;4255;48.730;9.156;2022-07-22T05:29:36;20.60;99.90
8436;DHT22;4255;48.730;9.156;2022-07-22T05:32:02;20.60;99.90
8436;DHT22;4255;48.730;9.156;2022-07-22T05:34:28;20.60;99.90
8436;DHT22;4255;48.730;9.156;2022-07-22T05:36:54;20.70;99.90
8436;DHT22;4255;48.730;9.156;2022-07-22T05:39:19;20.50;99.90
8436;DHT22;4255;48.730;9.156;2022-07-22T05:41:45;20.40;99.90
8436;DHT22;4255;48.730;9.156;2022-07-22T05:44:11;20.50;99.90
8436;DHT22;4255;48.730;9.156;2022-07-22T05:46:36;20.50;99.90
8436;DHT22;4255;48.730;9.156;2022-07-22T05:49:02;20.70;99.90
8436;DHT22;4255;48.730;9.156;2022-07-22T05:51:28;20.60;99.90
8436;DHT22;4255;48.730;9.156;2022-07-22T05:53:54;20.60;99.90
8436;DHT22;4255;48.730;9.156;2022-07-22T05:56:20;20.80;99.90
8436;DHT22;4255;48.730;9.156;2022-07-22T05:58:45;20.90;99.90
8436;DHT22;4255;48.730;9.156;2022-07-22T06:01:12;21.10;99.90
8436;DHT22;4255;48.730;9.156;2022-07-22T06:03:38;21.10;99.90
8436;DHT22;4255;48.730;9.156;2022-07-22T06:06:04;21.20;99.90
8436;DHT22;4255;48.730;9.156;2022-07-22T06:08:34;21.40;99.90
8436;DHT22;4255;48.730;9.156;2022-07-22T06:11:00;21.60;99.90
8436;DHT22;4255;48.730;9.156;2022-07-22T06:13:27;21.70;99.90
8436;DHT22;4255;48.730;9.156;2022-07-22T06:15:52;21.70;99.90
8436;DHT22;4255;48.730;9.156;2022-07-22T06:18:18;21.80;99.90
8436;DHT22;4255;48.730;9.156;2022-07-22T06:20:44;22.00;99.90
8436;DHT22;4255;48.730;9.156;2022-07-22T06:23:10;22.10;99.90
8436;DHT22;4255;48.730;9.156;2022-07-22T06:25:36;22.10;99.90
8436;DHT22;4255;48.730;9.156;2022-07-22T06:28:02;22.20;99.90
8436;DHT22;4255;48.730;9.156;2022-07-22T06:30:28;22.20;99.90
8436;DHT22;4255;48.730;9.156;2022-07-22T06:32:54;22.40;99.90
8436;DHT22;4255;48.730;9.156;2022-07-22T06:35:20;22.60;99.90
8436;DHT22;4255;48.730;9.156;2022-07-22T06:37:45;22.60;99.90
8436;DHT22;4255;48.730;9.156;2022-07-22T06:40:12;22.70;99.90
8436;DHT22;4255;48.730;9.156;2022-07-22T06:42:39;22.80;99.90
8436;DHT22;4255;48.730;9.156;2022-07-22T06:45:05;22.80;99.90
8436;DHT22;4255;48.730;9.156;2022-07-22T06:47:30;23.00;99.90
8436;DHT22;4255;48.730;9.156;2022-07-22T06:49:57;23.30;99.90
8436;DHT22;4255;48.730;9.156;2022-07-22T06:52:23;23.30;99.90
8436;DHT22;4255;48.730;9.156;2022-07-22T06:54:49;23.40;99.90
8436;DHT22;4255;48.730;9.156;2022-07-22T06:57:15;23.50;99.90
8436;DHT22;4255;48.730;9.156;2022-07-22T06:59:41;23.60;99.90
8436;DHT22;4255;48.730;9.156;2022-07-22T07:02:06;23.70;99.90
8436;DHT22;4255;48.730;9.156;2022-07-22T07:04:32;24.00;99.90
8436;DHT22;4255;48.730;9.156;2022-07-22T07:06:58;24.20;99.90
8436;DHT22;4255;48.730;9.156;2022-07-22T07:09:23;24.20;99.90
8436;DHT22;4255;48.730;9.156;2022-07-22T07:11:49;24.30;99.90
8436;DHT22;4255;48.730;9.156;2022-07-22T07:14:15;24.30;99.90
8436;DHT22;4255;48.730;9.156;2022-07-22T07:16:41;24.50;99.90
8436;DHT22;4255;48.730;9.156;2022-07-22T07:19:06;24.40;99.90
8436;DHT22;4255;48.730;9.156;2022-07-22T07:21:32;24.50;99.90
8436;DHT22;4255;48.730;9.156;2022-07-22T07:23:58;24.60;99.90
8436;DHT22;4255;48.730;9.156;2022-07-22T07:26:23;24.80;99.90
8436;DHT22;4255;48.730;9.156;2022-07-22T07:28:49;24.90;99.90
8436;DHT22;4255;48.730;9.156;2022-07-22T07:31:15;25.00;99.90
8436;DHT22;4255;48.730;9.156;2022-07-22T07:33:41;25.30;99.90
8436;DHT22;4255;48.730;9.156;2022-07-22T07:36:07;25.40;99.90
8436;DHT22;4255;48.730;9.156;2022-07-22T07:38:32;25.20;99.90
8436;DHT22;4255;48.730;9.156;2022-07-22T07:40:59;25.20;99.90
8436;DHT22;4255;48.730;9.156;2022-07-22T07:43:25;25.10;99.90
8436;DHT22;4255;48.730;9.156;2022-07-22T07:45:51;25.00;99.90
8436;DHT22;4255;48.730;9.156;2022-07-22T07:48:17;25.00;99.90
8436;DHT22;4255;48.730;9.156;2022-07-22T07:50:43;25.10;99.90
8436;DHT22;4255;48.730;9.156;2022-07-22T07:53:09;25.40;99.90
8436;DHT22;4255;48.730;9.156;2022-07-22T07:55:38;25.50;99.90
8436;DHT22;4255;48.730;9.156;2022-07-22T07:58:05;25.40;99.90
8436;DHT22;4255;48.730;9.156;2022-07-22T08:00:30;25.40;99.90
8436;DHT22;4255;48.730;9.156;2022-07-22T08:02:58;25.40;99.90
8436;DHT22;4255;48.730;9.156;2022-07-22T08:05:24;25.60;99.90
8436;DHT22;4255;48.730;9.156;2022-07-22T08:07:50;25.80;99.90
8436;DHT22;4255;48.730;9.156;2022-07-22T08:10:17;25.70;99.90
8436;DHT22;4255;48.730;9.156;2022-07-22T08:12:42;25.90;99.90
8436;DHT22;4255;48.730;9.156;2022-07-22T08:15:08;26.00;99.90
8436;DHT22;4255;48.730;9.156;2022-07-22T08:17:36;26.00;99.90
8436;DHT22;4255;48.730;9.156;2022-07-22T08:20:03;26.40;99.90
8436;DHT22;4255;48.730;9.156;2022-07-22T08:22:30;26.60;99.90
8436;DHT22;4255;48.730;9.156;2022-07-22T08:24:56;26.50;99.90
8436;DHT22;4255;48.730;9.156;2022-07-22T08:27:22;26.70;99.90
8436;DHT22;4255;48.730;9.156;2022-07-22T08:29:47;27.00;99.90
8436;DHT22;4255;48.730;9.156;2022-07-22T08:32:14;27.00;99.90
8436;DHT22;4255;48.730;9.156;2022-07-22T08:34:40;27.00;99.90
8436;DHT22;4255;48.730;9.156;2022-07-22T08:37:06;26.90;99.90
8436;DHT22;4255;48.730;9.156;2022-07-22T08:39:32;26.90;99.90
8436;DHT22;4255;48.730;9.156;2022-07-22T08:42:00;27.00;99.90
8436;DHT22;4255;48.730;9.156;2022-07-22T08:44:32;27.20;99.90
8436;DHT22;4255;48.730;9.156;2022-07-22T08:46:59;27.40;99.90
8436;DHT22;4255;48.730;9.156;2022-07-22T08:49:26;27.60;99.90
8436;DHT22;4255;48.730;9.156;2022-07-22T08:51:52;27.90;99.90
8436;DHT22;4255;48.730;9.156;2022-07-22T08:54:18;28.10;99.90
8436;DHT22;4255;48.730;9.156;2022-07-22T08:56:51;28.20;99.90
8436;DHT22;4255;48.730;9.156;2022-07-22T08:59:18;27.90;99.90
8436;DHT22;4255;48.730;9.156;2022-07-22T09:02:20;27.90;99.90
8436;DHT22;4255;48.730;9.156;2022-07-22T09:07:30;27.90;99.90
8436;DHT22;4255;48.730;9.156;2022-07-22T09:09:58;28.10;99.90
8436;DHT22;4255;48.730;9.156;2022-07-22T09:12:25;28.30;99.90
8436;DHT22;4255;48.730;9.156;2022-07-22T09:14:55;28.20;99.90
8436;DHT22;4255;48.730;9.156;2022-07-22T09:17:35;28.30;99.90
8436;DHT22;4255;48.730;9.156;2022-07-22T09:20:04;28.30;99.90
8436;DHT22;4255;48.730;9.156;2022-07-22T09:22:40;28.30;99.90
8436;DHT22;4255;48.730;9.156;2022-07-22T09:27:48;28.50;99.90
8436;DHT22;4255;48.730;9.156;2022-07-22T09:30:19;28.90;99.90
8436;DHT22;4255;48.730;9.156;2022-07-22T09:32:47;28.90;99.90
8436;DHT22;4255;48.730;9.156;2022-07-22T09:35:13;28.60;99.90
8436;DHT22;4255;48.730;9.156;2022-07-22T09:37:56;28.60;99.90
8436;DHT22;4255;48.730;9.156;2022-07-22T09:40:25;28.70;99.90
8436;DHT22;4255;48.730;9.156;2022-07-22T09:42:55;28.60;99.90
8436;DHT22;4255;48.730;9.156;2022-07-22T09:45:25;28.80;99.90
8436;DHT22;4255;48.730;9.156;2022-07-22T09:47:51;28.80;99.90
8436;DHT22;4255;48.730;9.156;2022-07-22T09:50:25;28.80;99.90
8436;DHT22;4255;48.730;9.156;2022-07-22T09:52:52;29.20;99.90
8436;DHT22;4255;48.730;9.156;2022-07-22T09:55:20;29.40;99.90
8436;DHT22;4255;48.730;9.156;2022-07-22T09:57:46;29.60;99.90
8436;DHT22;4255;48.730;9.156;2022-07-22T10:00:14;29.50;99.90
8436;DHT22;4255;48.730;9.156;2022-07-22T10:05:18;29.80;99.90
8436;DHT22;4255;48.730;9.156;2022-07-22T10:07:45;29.80;99.90
8436;DHT22;4255;48.730;9.156;2022-07-22T10:10:13;29.50;99.90
8436;DHT22;4255;48.730;9.156;2022-07-22T10:12:40;29.50;99.90
8436;DHT22;4255;48.730;9.156;2022-07-22T10:15:07;29.60;99.90
8436;DHT22;4255;48.730;9.156;2022-07-22T10:17:35;29.50;99.90
8436;DHT22;4255;48.730;9.156;2022-07-22T10:20:02;29.50;99.90
8436;DHT22;4255;48.730;9.156;2022-07-22T10:25:11;29.60;99.90
8436;DHT22;4255;48.730;9.156;2022-07-22T10:28:03;29.90;99.90
8436;DHT22;4255;48.730;9.156;2022-07-22T10:30:33;29.90;99.90
8436;DHT22;4255;48.730;9.156;2022-07-22T10:33:16;29.70;99.90
8436;DHT22;4255;48.730;9.156;2022-07-22T10:38:23;30.20;99.90
8436;DHT22;4255;48.730;9.156;2022-07-22T10:43:27;30.20;99.90
8436;DHT22;4255;48.730;9.156;2022-07-22T10:45:55;30.10;99.90
8436;DHT22;4255;48.730;9.156;2022-07-22T10:48:22;30.00;99.90
8436;DHT22;4255;48.730;9.156;2022-07-22T10:50:49;30.10;99.90
8436;DHT22;4255;48.730;9.156;2022-07-22T11:01:21;31.20;99.90
8436;DHT22;4255;48.730;9.156;2022-07-22T11:03:48;31.30;99.90
8436;DHT22;4255;48.730;9.156;2022-07-22T11:06:27;31.10;99.90
8436;DHT22;4255;48.730;9.156;2022-07-22T11:08:58;31.10;99.90
8436;DHT22;4255;48.730;9.156;2022-07-22T11:11:48;31.40;99.90
8436;DHT22;4255;48.730;9.156;2022-07-22T11:14:23;31.70;99.90
8436;DHT22;4255;48.730;9.156;2022-07-22T11:16:54;31.30;99.00
8436;DHT22;4255;48.730;9.156;2022-07-22T11:19:26;31.30;99.90
8436;DHT22;4255;48.730;9.156;2022-07-22T11:21:57;31.60;99.90
8436;DHT22;4255;48.730;9.156;2022-07-22T11:24:24;31.90;99.70
8436;DHT22;4255;48.730;9.156;2022-07-22T11:26:52;32.00;99.50
8436;DHT22;4255;48.730;9.156;2022-07-22T11:29:27;32.00;99.20
8436;DHT22;4255;48.730;9.156;2022-07-22T11:31:56;32.00;98.00
8436;DHT22;4255;48.730;9.156;2022-07-22T11:34:22;32.00;98.30
8436;DHT22;4255;48.730;9.156;2022-07-22T11:36:49;32.20;98.10
8436;DHT22;4255;48.730;9.156;2022-07-22T11:39:22;32.20;97.40
8436;DHT22;4255;48.730;9.156;2022-07-22T11:41:50;32.30;97.80
8436;DHT22;4255;48.730;9.156;2022-07-22T11:44:21;32.00;98.00
8436;DHT22;4255;48.730;9.156;2022-07-22T11:46:48;31.90;97.00
8436;DHT22;4255;48.730;9.156;2022-07-22T11:49:17;31.30;97.10
8436;DHT22;4255;48.730;9.156;2022-07-22T11:51:43;31.30;97.30
8436;DHT22;4255;48.730;9.156;2022-07-22T11:54:08;31.30;98.60
8436;DHT22;4255;48.730;9.156;2022-07-22T11:56:35;31.80;98.00
8436;DHT22;4255;48.730;9.156;2022-07-22T11:59:01;32.00;98.60
8436;DHT22;4255;48.730;9.156;2022-07-22T12:01:31;32.20;96.90
8436;DHT22;4255;48.730;9.156;2022-07-22T12:03:59;32.30;95.60
8436;DHT22;4255;48.730;9.156;2022-07-22T12:06:27;32.50;95.90
8436;DHT22;4255;48.730;9.156;2022-07-22T12:09:02;32.50;95.90
8436;DHT22;4255;48.730;9.156;2022-07-22T12:11:29;32.10;96.10
8436;DHT22;4255;48.730;9.156;2022-07-22T12:13:55;31.90;94.90
8436;DHT22;4255;48.730;9.156;2022-07-22T12:19:01;32.60;96.30
8436;DHT22;4255;48.730;9.156;2022-07-22T12:21:33;32.50;94.40
8436;DHT22;4255;48.730;9.156;2022-07-22T12:24:07;32.40;93.00
8436;DHT22;4255;48.730;9.156;2022-07-22T12:26:44;32.20;93.80
8436;DHT22;4255;48.730;9.156;2022-07-22T12:29:14;32.20;94.20
8436;DHT22;4255;48.730;9.156;2022-07-22T12:32:04;32.40;94.80
8436;DHT22;4255;48.730;9.156;2022-07-22T12:36:57;33.00;95.20
8436;DHT22;4255;48.730;9.156;2022-07-22T12:39:23;33.10;94.90
8436;DHT22;4255;48.730;9.156;2022-07-22T12:41:51;33.20;93.10
8436;DHT22;4255;48.730;9.156;2022-07-22T12:44:22;33.10;92.50
8436;DHT22;4255;48.730;9.156;2022-07-22T12:46:55;32.90;92.30
8436;DHT22;4255;48.730;9.156;2022-07-22T12:49:23;32.70;92.00
8436;DHT22;4255;48.730;9.156;2022-07-22T12:54:32;32.90;93.40
8436;DHT22;4255;48.730;9.156;2022-07-22T12:56:58;33.10;93.90
8436;DHT22;4255;48.730;9.156;2022-07-22T12:59:24;33.30;91.40
8436;DHT22;4255;48.730;9.156;2022-07-22T13:01:49;33.40;92.30
8436;DHT22;4255;48.730;9.156;2022-07-22T13:04:15;33.50;92.50
8436;DHT22;4255;48.730;9.156;2022-07-22T13:06:41;33.70;91.10
8436;DHT22;4255;48.730;9.156;2022-07-22T13:09:07;33.60;91.00
8436;DHT22;4255;48.730;9.156;2022-07-22T13:11:33;33.50;91.90
8436;DHT22;4255;48.730;9.156;2022-07-22T13:14:05;33.60;91.40
8436;DHT22;4255;48.730;9.156;2022-07-22T13:16:32;33.70;88.70
8436;DHT22;4255;48.730;9.156;2022-07-22T13:18:58;33.90;90.20
8436;DHT22;4255;48.730;9.156;2022-07-22T13:21:24;33.90;90.10
8436;DHT22;4255;48.730;9.156;2022-07-22T13:23:50;34.00;89.20
8436;DHT22;4255;48.730;9.156;2022-07-22T13:26:15;33.90;89.20
8436;DHT22;4255;48.730;9.156;2022-07-22T13:28:41;33.90;90.00
8436;DHT22;4255;48.730;9.156;2022-07-22T13:31:08;33.90;88.00
8436;DHT22;4255;48.730;9.156;2022-07-22T13:33:34;33.90;87.30
8436;DHT22;4255;48.730;9.156;2022-07-22T13:36:00;33.90;89.90
8436;DHT22;4255;48.730;9.156;2022-07-22T13:38:26;34.00;89.00
8436;DHT22;4255;48.730;9.156;2022-07-22T13:40:52;34.10;88.30
8436;DHT22;4255;48.730;9.156;2022-07-22T13:43:22;33.80;84.70
8436;DHT22;4255;48.730;9.156;2022-07-22T13:45:52;33.70;86.20
8436;DHT22;4255;48.730;9.156;2022-07-22T13:48:18;33.60;86.30
8436;DHT22;4255;48.730;9.156;2022-07-22T13:50:45;33.60;86.80
8436;DHT22;4255;48.730;9.156;2022-07-22T13:53:10;33.50;85.20
8436;DHT22;4255;48.730;9.156;2022-07-22T13:55:39;33.70;86.00
8436;DHT22;4255;48.730;9.156;2022-07-22T13:58:06;33.90;84.00
8436;DHT22;4255;48.730;9.156;2022-07-22T14:00:32;34.00;83.40
8436;DHT22;4255;48.730;9.156;2022-07-22T14:02:58;34.10;81.90
8436;DHT22;4255;48.730;9.156;2022-07-22T14:05:24;33.60;79.20
8436;DHT22;4255;48.730;9.156;2022-07-22T14:07:50;33.50;80.70
8436;DHT22;4255;48.730;9.156;2022-07-22T14:10:15;33.80;81.50
8436;DHT22;4255;48.730;9.156;2022-07-22T14:12:42;34.10;82.20
8436;DHT22;4255;48.730;9.156;2022-07-22T14:15:08;34.30;79.80
8436;DHT22;4255;48.730;9.156;2022-07-22T14:17:34;34.30;78.50
8436;DHT22;4255;48.730;9.156;2022-07-22T14:20:00;34.10;78.20
8436;DHT22;4255;48.730;9.156;2022-07-22T14:22:26;33.90;79.20
8436;DHT22;4255;48.730;9.156;2022-07-22T14:24:52;34.10;80.50
8436;DHT22;4255;48.730;9.156;2022-07-22T14:27:18;34.00;80.30
8436;DHT22;4255;48.730;9.156;2022-07-22T14:29:44;34.10;77.50
8436;DHT22;4255;48.730;9.156;2022-07-22T14:32:09;34.10;81.20
8436;DHT22;4255;48.730;9.156;2022-07-22T14:34:35;34.40;79.10
8436;DHT22;4255;48.730;9.156;2022-07-22T14:37:01;34.50;76.60
8436;DHT22;4255;48.730;9.156;2022-07-22T14:39:26;34.80;77.60
8436;DHT22;4255;48.730;9.156;2022-07-22T14:41:52;35.00;77.70
8436;DHT22;4255;48.730;9.156;2022-07-22T14:44:18;35.30;73.90
8436;DHT22;4255;48.730;9.156;2022-07-22T14:46:44;35.10;71.70
8436;DHT22;4255;48.730;9.156;2022-07-22T14:49:09;34.30;71.80
8436;DHT22;4255;48.730;9.156;2022-07-22T14:51:35;34.20;73.60
8436;DHT22;4255;48.730;9.156;2022-07-22T14:54:01;34.20;74.20
8436;DHT22;4255;48.730;9.156;2022-07-22T14:56:27;34.40;74.40
8436;DHT22;4255;48.730;9.156;2022-07-22T14:58:53;34.60;73.20
8436;DHT22;4255;48.730;9.156;2022-07-22T15:01:18;34.70;71.20
8436;DHT22;4255;48.730;9.156;2022-07-22T15:03:44;34.30;71.60
8436;DHT22;4255;48.730;9.156;2022-07-22T15:06:10;34.20;73.10
8436;DHT22;4255;48.730;9.156;2022-07-22T15:08:36;34.30;75.20
8436;DHT22;4255;48.730;9.156;2022-07-22T15:11:02;34.20;73.20
8436;DHT22;4255;48.730;9.156;2022-07-22T15:13:28;34.30;75.00
8436;DHT22;4255;48.730;9.156;2022-07-22T15:15:55;34.50;75.70
8436;DHT22;4255;48.730;9.156;2022-07-22T15:18:21;34.70;73.20
8436;DHT22;4255;48.730;9.156;2022-07-22T15:20:47;34.70;72.90
8436;DHT22;4255;48.730;9.156;2022-07-22T15:23:13;34.70;74.00
8436;DHT22;4255;48.730;9.156;2022-07-22T15:25:39;34.80;72.00
8436;DHT22;4255;48.730;9.156;2022-07-22T15:28:05;34.80;72.20
8436;DHT22;4255;48.730;9.156;2022-07-22T15:30:32;34.70;71.40
8436;DHT22;4255;48.730;9.156;2022-07-22T15:32:58;34.90;72.90
8436;DHT22;4255;48.730;9.156;2022-07-22T15:35:24;35.00;72.50
8436;DHT22;4255;48.730;9.156;2022-07-22T15:37:49;35.00;71.90
8436;DHT22;4255;48.730;9.156;2022-07-22T15:40:15;35.00;69.40
8436;DHT22;4255;48.730;9.156;2022-07-22T15:42:42;34.80;70.30
8436;DHT22;4255;48.730;9.156;2022-07-22T15:45:09;34.70;71.10
8436;DHT22;4255;48.730;9.156;2022-07-22T15:47:34;34.90;70.50
8436;DHT22;4255;48.730;9.156;2022-07-22T15:50:00;35.20;71.30
8436;DHT22;4255;48.730;9.156;2022-07-22T15:52:26;35.50;68.70
8436;DHT22;4255;48.730;9.156;2022-07-22T15:54:52;35.60;67.90
8436;DHT22;4255;48.730;9.156;2022-07-22T15:57:18;35.50;67.00
8436;DHT22;4255;48.730;9.156;2022-07-22T16:00:04;35.60;68.30
8436;DHT22;4255;48.730;9.156;2022-07-22T16:02:30;35.90;67.90
8436;DHT22;4255;48.730;9.156;2022-07-22T16:04:56;36.20;64.70
8436;DHT22;4255;48.730;9.156;2022-07-22T16:07:21;36.30;64.60
8436;DHT22;4255;48.730;9.156;2022-07-22T16:09:47;36.40;64.50
8436;DHT22;4255;48.730;9.156;2022-07-22T16:12:13;36.20;63.10
8436;DHT22;4255;48.730;9.156;2022-07-22T16:14:38;36.20;63.10
8436;DHT22;4255;48.730;9.156;2022-07-22T16:17:04;36.10;64.60
8436;DHT22;4255;48.730;9.156;2022-07-22T16:19:30;36.00;63.80
8436;DHT22;4255;48.730;9.156;2022-07-22T16:21:55;35.80;64.90
8436;DHT22;4255;48.730;9.156;2022-07-22T16:24:21;35.60;65.20
8436;DHT22;4255;48.730;9.156;2022-07-22T16:26:47;35.40;65.50
8436;DHT22;4255;48.730;9.156;2022-07-22T16:29:13;35.30;65.80
8436;DHT22;4255;48.730;9.156;2022-07-22T16:31:38;35.40;65.60